Latest Weather Observations for Nullarbor

IDS60801

Issued at 5:35 pm CST Saturday 2 August 2014 (issued every 30 minutes, with the page automatically refreshed every 10 minutes)

About weather observations | Map of weather stations | Latest weather observations for SA | Other Formats
Station Details ID: 018106 Name: NULLARBOR Lat: -31.45 Lon: 130.90 Height: 64.0 m
Data from the previous 72 hours. | See also: Recent months at Nullarbor
Date/Time
CST
Temp
°C
App
Temp
°C
Dew
Point
Rel
Hum
%
Delta-T
°C
Wind Press
QNH
hPa
Press
MSL
hPa
Rain
since 9 am
mm
Dir
 
Spd
km/h
Gust
km/h
Spd
kts
Gust
kts
02/05:30pm 16.1 12.0 -0.2 33 6.9 NE 11 17 6 9 1027.2 1027.2 0.0
02/05:00pm 16.8 12.0 0.0 32 7.2 NNE 15 22 8 12 1027.1 - 0.0
02/04:30pm 17.4 13.9 1.0 33 7.2 N 9 15 5 8 1027.1 1027.1 0.0
02/04:00pm 16.9 12.8 -0.3 31 7.4 NNE 11 17 6 9 1027.4 - 0.0
02/03:30pm 17.1 11.9 -0.1 31 7.4 N 17 22 9 12 1027.5 1027.5 0.0
02/03:00pm 17.1 11.6 0.3 32 7.2 NNE 19 26 10 14 1027.6 1027.6 0.0
02/02:30pm 17.4 11.7 0.6 32 7.3 N 20 28 11 15 1027.8 1027.8 0.0
02/02:00pm 16.2 10.6 -0.1 33 7.0 N 19 30 10 16 1028.0 - 0.0
02/01:30pm 17.1 10.7 1.1 34 7.0 N 24 30 13 16 1028.5 1028.5 0.0
02/01:00pm 15.6 9.5 0.6 36 6.5 N 22 37 12 20 1028.9 - 0.0
02/12:30pm 16.2 10.1 0.7 35 6.7 NNE 22 33 12 18 1029.4 1029.4 0.0
02/12:00pm 15.2 8.7 0.2 36 6.3 NE 24 33 13 18 1029.8 1029.8 0.0
02/11:30am 14.9 9.4 2.1 42 5.6 NNE 20 28 11 15 1030.2 1030.2 0.0
02/11:00am 14.2 8.5 2.8 46 5.1 NE 22 26 12 14 1030.7 - 0.0
02/10:30am 13.3 8.0 3.1 50 4.5 ENE 20 24 11 13 1030.8 1030.8 0.0
02/10:00am 12.4 7.4 3.4 54 4.0 ENE 19 24 10 13 1030.9 - 0.0
02/09:30am 11.5 7.0 4.0 60 3.3 ENE 17 20 9 11 1030.9 1030.9 0.0
02/09:00am 10.5 6.8 4.2 65 2.8 E 13 15 7 8 1030.7 1030.7 0.0
02/08:30am 9.6 6.7 4.6 71 2.2 ENE 9 11 5 6 1030.4 1030.4 0.0
02/08:00am 9.2 6.2 4.2 71 2.2 E 9 13 5 7 1030.3 - 0.0
02/07:30am 9.2 5.4 4.0 70 2.3 E 13 17 7 9 1030.0 1030.0 0.0
02/07:00am 8.8 6.3 4.6 75 1.9 ENE 7 9 4 5 1029.8 - 0.0
02/06:30am 9.0 6.7 4.6 74 1.9 ENE 6 7 3 4 1029.7 1029.7 0.0
02/06:00am 9.4 5.7 4.6 72 2.1 E 13 17 7 9 1029.6 1029.6 0.0
02/05:30am 9.0 5.8 5.2 77 1.7 NE 11 15 6 8 1029.7 1029.7 0.0
02/05:00am 9.2 5.6 5.0 75 1.9 E 13 15 7 8 1029.6 - 0.0
02/04:30am 9.2 6.8 5.2 76 1.8 NE 7 9 4 5 1029.7 1029.7 0.0
02/04:00am 9.4 6.7 5.4 76 1.8 NE 9 13 5 7 1029.7 - 0.0
02/03:30am 9.5 6.5 5.9 78 1.6 NE 11 17 6 9 1029.9 1029.9 0.0
02/03:00am 9.4 7.1 5.9 79 1.6 NE 7 11 4 6 1030.1 1030.1 0.0
02/02:30am 10.5 7.2 6.6 77 1.8 ESE 13 17 7 9 1029.9 1029.9 0.0
02/02:00am 9.7 7.2 6.4 80 1.5 E 9 11 5 6 1030.2 - 0.0
02/01:30am 9.6 6.6 6.1 79 1.6 E 11 13 6 7 1030.2 1030.2 0.0
02/01:00am 9.9 6.9 6.2 78 1.7 SE 11 13 6 7 1030.3 - 0.0
02/12:30am 9.8 6.9 6.5 80 1.5 SSE 11 13 6 7 1030.4 1030.4 0.0
02/12:00am 9.2 6.4 6.8 85 1.1 SE 11 13 6 7 1030.5 1030.5 0.0
 
Date/Time
CST
Temp
°C
App
Temp
°C
Dew
Point
Rel
Hum
%
Delta-T
°C
Wind Press
QNH
hPa
Press
MSL
hPa
Rain
since 9 am
mm
Dir
 
Spd
km/h
Gust
km/h
Spd
kts
Gust
kts
01/11:30pm 8.6 6.3 5.7 82 1.3 SE 7 9 4 5 1030.6 1030.6 0.0
01/11:00pm 7.7 4.5 5.3 85 1.1 SE 11 13 6 7 1030.5 - 0.0
01/10:30pm 7.4 5.0 4.5 82 1.3 SSE 6 7 3 4 1030.3 1030.3 0.0
01/10:00pm 8.2 5.5 5.7 84 1.1 SSW 9 11 5 6 1030.4 - 0.0
01/09:30pm 7.5 4.7 5.0 84 1.1 SSE 9 9 5 5 1030.3 1030.3 0.0
01/09:00pm 7.1 3.7 4.1 81 1.3 SSE 11 13 6 7 1030.1 1030.1 0.0
01/08:30pm 7.9 4.2 4.7 80 1.4 SSE 13 15 7 8 1029.9 1029.9 0.0
01/08:00pm 9.1 6.2 4.7 74 2.0 SSE 9 11 5 6 1029.7 - 0.0
01/07:30pm 10.4 7.6 5.2 70 2.4 SSE 9 11 5 6 1029.5 1029.5 0.0
01/07:00pm 11.2 8.3 4.9 65 2.9 SE 9 11 5 6 1029.2 - 0.0
01/06:30pm 11.7 8.1 4.9 63 3.1 SE 13 17 7 9 1028.9 1028.9 0.0
01/06:00pm 11.9 8.0 5.3 64 3.0 ESE 15 20 8 11 1028.8 1028.8 0.0
01/05:30pm 13.1 8.3 4.5 56 3.9 SSE 19 24 10 13 1028.4 1028.4 0.0
01/05:00pm 13.5 8.2 5.2 57 3.9 SSE 22 26 12 14 1028.3 - 0.0
01/04:30pm 14.3 9.6 2.9 46 5.1 S 17 26 9 14 1028.2 1028.2 0.0
01/04:00pm 14.4 10.1 3.5 48 5.0 S 15 17 8 9 1028.2 - 0.0
01/03:30pm 13.5 8.7 2.7 48 4.7 SSW 17 22 9 12 1028.2 1028.2 0.0
01/03:00pm 13.6 9.2 2.5 47 4.9 S 15 22 8 12 1028.0 1028.0 0.0
01/02:30pm 14.3 9.4 2.2 44 5.3 S 17 24 9 13 1027.9 1027.9 0.0
01/02:00pm 14.5 10.0 2.4 44 5.4 S 15 24 8 13 1027.8 - 0.0
01/01:30pm 14.0 9.0 1.6 43 5.3 S 17 22 9 12 1027.9 1027.9 0.0
01/01:00pm 14.2 9.5 3.4 48 4.9 S 17 22 9 12 1028.1 - 0.0
01/12:30pm 13.7 8.4 5.1 56 4.0 SW 22 30 12 16 1028.4 1028.4 0.0
01/12:00pm 13.4 7.5 5.8 60 3.6 SSW 26 37 14 20 1028.5 1028.5 0.0
01/11:30am 13.4 8.1 6.7 64 3.2 SSW 24 32 13 17 1028.5 1028.5 0.0
01/11:00am 13.8 8.9 5.2 56 4.0 SSW 20 30 11 16 1028.3 - 0.0
01/10:30am 12.2 8.0 5.8 65 3.0 SSE 17 22 9 12 1028.2 1028.2 0.0
01/10:00am 11.3 4.4 6.4 72 2.3 SSE 32 41 17 22 1027.9 - 0.0
01/09:30am 11.2 6.1 7.5 78 1.8 SSW 24 32 13 17 1027.6 1027.6 0.0
01/09:04am 10.0 7.0 7.9 87 1.0 S 13 17 7 9 1027.2 - 0.0
01/09:00am 9.9 7.3 7.8 87 1.0 S 11 17 6 9 1027.1 1027.1 1.4
01/08:42am 10.0 5.7 7.9 87 1.0 SSW 20 32 11 17 1027.0 - 1.2
01/08:30am 10.1 7.2 6.4 78 1.7 SSW 11 15 6 8 1026.6 1026.6 1.2
01/08:00am 9.7 5.2 6.2 79 1.6 WSW 19 22 10 12 1026.2 - 1.2
01/07:30am 9.8 5.4 6.7 81 1.4 SSW 19 26 10 14 1025.8 1025.8 1.2
01/07:00am 8.3 4.3 5.1 80 1.4 SSW 15 19 8 10 1025.3 - 1.2
01/06:30am 8.1 4.0 4.5 78 1.6 SSW 15 17 8 9 1024.9 1024.9 1.2
01/06:00am 9.2 5.0 5.9 80 1.5 SSW 17 24 9 13 1024.8 1024.8 1.2
01/05:43am 9.9 3.7 6.2 78 1.7 SSW 28 39 15 21 1024.7 - 1.2
01/05:30am 8.5 4.2 5.4 81 1.4 SW 17 20 9 11 1024.4 1024.4 1.2
01/05:00am 8.8 4.4 6.4 85 1.1 SSW 19 24 10 13 1024.1 - 1.2
01/04:30am 9.0 4.6 6.4 84 1.2 SW 19 22 10 12 1023.9 1023.9 1.2
01/04:00am 9.3 5.1 7.3 87 0.9 SW 19 24 10 13 1024.0 - 1.2
01/03:30am 9.0 4.1 7.0 87 0.9 SSW 22 28 12 15 1023.8 1023.8 1.2
01/03:23am 9.3 3.6 6.9 85 1.1 SSW 26 37 14 20 1023.8 - 1.2
01/03:13am 9.4 2.2 7.7 89 0.8 SSW 35 41 19 22 1023.8 - 1.2
01/03:00am 9.5 2.2 8.6 94 0.4 SW 37 46 20 25 1024.0 1024.0 1.0
01/02:53am 9.6 5.5 7.9 89 0.8 WSW 19 44 10 24 1024.0 - 0.8
01/02:30am 9.6 5.2 7.4 86 1.0 WSW 20 28 11 15 1023.7 1023.7 0.4
01/02:27am 9.7 4.9 7.5 86 1.1 SW 22 28 12 15 1023.6 - 0.4
01/02:13am 9.8 3.0 7.7 87 1.0 WSW 33 52 18 28 1023.8 - 0.4
01/02:08am 9.9 2.0 7.7 86 1.1 SW 39 52 21 28 1023.9 - 0.4
01/02:06am 10.2 2.1 7.1 81 1.5 SW 39 52 21 28 1023.8 - 0.4
01/02:00am 10.3 5.6 5.9 74 2.0 WSW 20 24 11 13 1023.6 - 0.4
01/01:30am 10.5 5.4 6.1 74 2.0 WSW 22 32 12 17 1023.8 1023.8 0.4
01/01:00am 11.1 4.9 6.3 72 2.3 WSW 28 46 15 25 1023.6 - 0.4
01/12:30am 11.2 5.1 6.5 73 2.2 WSW 28 39 15 21 1023.6 1023.6 0.4
01/12:12am 12.2 5.5 3.4 55 3.9 WSW 28 50 15 27 1023.5 - 0.4
01/12:00am 12.2 5.0 3.2 54 4.0 SW 30 39 16 21 1023.4 1023.4 0.4
 
Date/Time
CST
Temp
°C
App
Temp
°C
Dew
Point
Rel
Hum
%
Delta-T
°C
Wind Press
QNH
hPa
Press
MSL
hPa
Rain
since 9 am
mm
Dir
 
Spd
km/h
Gust
km/h
Spd
kts
Gust
kts
31/11:30pm 12.3 4.5 1.9 49 4.5 WSW 32 43 17 23 1023.5 1023.5 0.4
31/11:00pm 12.1 4.3 2.0 50 4.4 WSW 32 41 17 22 1023.2 - 0.4
31/10:30pm 12.0 5.1 2.7 53 4.0 WSW 28 37 15 20 1023.1 1023.1 0.4
31/10:00pm 11.9 4.6 2.4 52 4.1 SW 30 39 16 21 1022.7 - 0.4
31/09:30pm 11.9 3.8 1.3 48 4.5 WSW 33 46 18 25 1022.6 1022.7 0.4
31/09:00pm 12.2 5.0 3.2 54 4.0 SW 30 44 16 24 1022.1 1022.2 0.4
31/08:30pm 11.8 4.7 3.3 56 3.7 SW 30 39 16 21 1022.0 1022.1 0.4
31/08:00pm 11.7 5.5 6.0 68 2.7 WSW 28 39 15 21 1021.7 - 0.4
31/07:41pm 12.0 5.4 6.1 67 2.8 WSW 30 48 16 26 1021.3 - 0.4
31/07:30pm 11.6 5.8 6.3 70 2.5 WSW 26 39 14 21 1021.3 1021.4 0.4
31/07:08pm 11.0 6.8 8.2 83 1.4 WSW 20 28 11 15 1021.1 - 0.4
31/07:00pm 10.9 6.3 8.3 84 1.3 WSW 22 30 12 16 1021.0 - 0.4
31/06:50pm 10.8 5.8 8.0 83 1.4 WSW 24 33 13 18 1021.1 - 0.2
31/06:38pm 10.8 6.2 8.0 83 1.4 WSW 22 32 12 17 1020.9 - 0.2
31/06:30pm 11.0 5.2 8.0 82 1.5 WSW 28 43 15 23 1020.8 1020.9 0.2
31/06:22pm 10.8 3.7 7.9 82 1.4 SW 35 46 19 25 1020.7 - 0.2
31/06:00pm 12.8 6.5 5.5 61 3.4 WSW 28 44 15 24 1020.2 1020.3 0.2
31/05:30pm 13.0 5.8 7.5 69 2.7 WSW 35 48 19 26 1019.8 1019.9 0.2
31/05:00pm 13.1 7.2 7.3 68 2.8 WSW 28 41 15 22 1019.4 - 0.2
31/04:39pm 13.8 6.5 7.3 65 3.2 WSW 35 56 19 30 1019.1 - 0.2
31/04:30pm 14.6 6.6 7.6 63 3.5 WSW 39 54 21 29 1019.0 1019.1 0.2
31/04:20pm 14.5 6.4 6.8 60 3.8 WSW 39 57 21 31 1018.9 - 0.2
31/04:00pm 14.7 6.7 7.5 62 3.6 WSW 39 52 21 28 1018.6 - 0.2
31/03:32pm 14.8 6.9 7.8 63 3.5 WSW 39 63 21 34 1018.3 - 0.2
31/03:30pm 15.2 7.3 8.0 62 3.6 WSW 39 52 21 28 1018.3 1018.4 0.2
31/03:09pm 14.4 6.9 9.6 73 2.5 SW 39 57 21 31 1018.2 - 0.2
31/03:00pm 13.3 5.0 9.9 80 1.7 WSW 44 57 24 31 1018.2 1018.3 0.2
31/02:30pm 15.0 5.9 8.5 65 3.3 WSW 46 61 25 33 1017.7 1017.8 0.2
31/02:05pm 14.1 6.3 9.9 76 2.2 WSW 41 59 22 32 1017.7 - 0.2
31/02:00pm 15.1 8.6 10.3 73 2.5 WSW 35 56 19 30 1017.6 - 0.2
31/01:46pm 13.9 6.0 9.3 74 2.4 WSW 41 65 22 35 1017.6 - 0.2
31/01:44pm 15.3 7.7 9.2 67 3.1 WSW 39 59 21 32 1017.4 - 0.2
31/01:30pm 15.9 8.0 7.7 58 4.1 WSW 39 54 21 29 1017.4 1017.5 0.2
31/01:24pm 16.0 7.8 8.0 59 4.0 WSW 41 59 22 32 1017.5 - 0.0
31/01:00pm 17.0 9.7 10.1 64 3.7 WSW 39 52 21 28 1017.3 - 0.0
31/12:48pm 15.5 8.8 9.8 69 3.0 WSW 35 50 19 27 1017.5 - 0.0
31/12:30pm 14.5 8.6 12.5 88 1.1 WSW 35 48 19 26 1017.7 1017.8 0.0
31/12:25pm 14.4 8.5 12.3 87 1.1 WSW 35 48 19 26 1017.6 - 0.0
31/12:23pm 14.6 8.8 12.6 88 1.1 WSW 35 44 19 24 1017.6 - 0.0
31/12:07pm 13.9 8.0 13.6 98 0.2 WSW 37 50 20 27 1017.6 - 0.0
31/12:00pm 13.8 7.5 13.6 99 0.1 WSW 39 52 21 28 1017.7 1017.8 0.0
31/11:55am 13.6 6.4 13.1 97 0.3 WSW 43 61 23 33 1017.6 - 0.0
31/11:46am 13.1 5.1 12.3 95 0.4 WSW 46 63 25 34 1017.6 - 0.0
31/11:31am 14.9 6.6 12.6 86 1.3 WSW 48 67 26 36 1017.1 - 0.0
31/11:30am 14.6 6.1 12.1 85 1.4 WSW 48 67 26 36 1017.0 1017.1 0.0
31/11:02am 15.9 7.7 9.6 66 3.3 W 43 61 23 33 1016.7 - 0.0
31/11:00am 15.9 7.6 9.3 65 3.4 W 43 56 23 30 1016.6 - 0.0
31/10:30am 15.4 8.0 8.2 62 3.6 W 37 46 20 25 1016.3 1016.4 0.0
31/10:00am 14.4 7.2 7.5 63 3.4 W 35 46 19 25 1016.1 - 0.0
31/09:30am 13.2 6.4 6.8 65 3.1 W 32 43 17 23 1015.8 1015.9 0.0
31/09:00am 12.1 5.5 5.9 66 2.9 WNW 30 41 16 22 1015.4 1015.4 0.0
31/08:30am 10.3 5.0 5.1 70 2.4 WNW 22 28 12 15 1015.2 1015.2 0.0
31/08:00am 8.7 3.6 4.1 73 2.0 WNW 20 24 11 13 1015.0 - 0.0
31/07:30am 8.5 2.9 3.6 71 2.1 WNW 22 28 12 15 1014.6 1014.6 0.0
31/07:00am 8.2 3.0 3.5 72 2.0 WNW 20 26 11 14 1014.3 - 0.0
31/06:30am 8.2 2.9 3.1 70 2.2 NW 20 26 11 14 1013.9 1013.9 0.0
31/06:00am 8.5 2.7 2.5 66 2.5 NW 22 28 12 15 1013.6 1013.6 0.0
31/05:30am 8.6 2.9 2.6 66 2.5 NW 22 28 12 15 1013.6 1013.6 0.0
31/05:00am 8.3 3.2 3.0 69 2.3 NW 19 24 10 13 1013.7 - 0.0
31/04:30am 8.1 3.4 3.0 70 2.2 NW 17 20 9 11 1013.7 1013.7 0.0
31/04:00am 7.7 2.6 3.0 72 2.0 NNW 19 22 10 12 1013.7 - 0.0
31/03:30am 8.3 3.2 3.2 70 2.2 NNW 19 24 10 13 1013.9 1013.9 0.0
31/03:00am 8.4 3.8 3.5 71 2.1 NW 17 19 9 10 1014.3 1014.3 0.0
31/02:30am 8.5 3.9 3.6 71 2.1 NW 17 20 9 11 1014.6 1014.6 0.0
31/02:00am 7.7 3.0 3.4 74 1.8 NW 17 20 9 11 1015.0 - 0.0
31/01:30am 7.0 2.3 3.3 77 1.6 NNW 17 20 9 11 1015.0 1015.0 0.0
31/01:00am 6.3 2.0 3.3 81 1.3 NNW 15 19 8 10 1015.4 - 0.0
31/12:30am 6.8 2.5 3.4 79 1.4 NNW 15 19 8 10 1015.7 1015.8 0.0
31/12:00am 7.2 2.5 3.4 77 1.6 NNW 17 19 9 10 1015.8 1015.9 0.0
 
Date/Time
CST
Temp
°C
App
Temp
°C
Dew
Point
Rel
Hum
%
Delta-T
°C
Wind Press
QNH
hPa
Press
MSL
hPa
Rain
since 9 am
mm
Dir
 
Spd
km/h
Gust
km/h
Spd
kts
Gust
kts
30/11:30pm 8.5 4.7 3.8 72 2.0 NW 13 17 7 9 1016.0 1016.1 0.0
30/11:00pm 8.7 4.5 3.7 71 2.2 NW 15 17 8 9 1016.2 - 0.0
30/10:30pm 9.1 5.3 3.9 70 2.3 WNW 13 15 7 8 1016.6 1016.7 0.0
30/10:00pm 9.5 5.4 4.1 69 2.4 NW 15 19 8 10 1016.6 - 0.0
30/09:30pm 8.5 4.7 3.8 72 2.0 NW 13 13 7 7 1016.6 1016.7 0.0
30/09:00pm 10.8 7.1 4.3 64 2.9 WNW 13 15 7 8 1016.8 1016.9 0.0
30/08:30pm 12.7 9.0 4.4 57 3.8 W 13 13 7 7 1016.8 1016.9 0.0
30/08:00pm 12.7 9.7 4.2 56 3.9 W 9 9 5 5 1016.9 - 0.0
30/07:30pm 14.4 11.1 4.4 51 4.6 WSW 11 13 6 7 1016.8 1016.9 0.0
30/07:00pm 14.9 11.1 3.7 47 5.1 NW 13 17 7 9 1016.5 - 0.0
30/06:30pm 17.0 13.1 3.3 40 6.3 WNW 13 17 7 9 1016.3 1016.4 0.0
30/06:00pm 20.0 15.2 2.4 31 8.2 WNW 17 20 9 11 1016.2 1016.3 0.0

Other Formats:

Comma delimited format used in spreadsheet applications
http://www.bom.gov.au/fwo/IDS60801/IDS60801.94651.axf

JavaScript Object Notation format (JSON) in row-major order
http://www.bom.gov.au/fwo/IDS60801/IDS60801.94651.json